createdAt,value
2023-01-29T00:01:07.506Z,80.22
2023-01-29T00:03:40.849Z,80.35
2023-01-29T00:06:10.550Z,80.32
2023-01-29T00:08:48.358Z,80.04
2023-01-29T00:11:17.049Z,80.17
2023-01-29T00:13:55.244Z,80.12
2023-01-29T00:16:33.116Z,80.18
2023-01-29T00:19:02.873Z,80.26
2023-01-29T00:21:40.865Z,80.29
2023-01-29T00:24:14.629Z,80.34
2023-01-29T00:26:43.345Z,80.20
2023-01-29T00:29:12.842Z,80.09
2023-01-29T00:32:01.843Z,80.23
2023-01-29T00:34:41.489Z,80.35
2023-01-29T00:37:24.619Z,80.42
2023-01-29T00:39:53.352Z,80.53
2023-01-29T00:42:52.241Z,80.61
2023-01-29T00:45:23.671Z,80.88
2023-01-29T00:47:55.237Z,80.76
2023-01-29T00:50:29.581Z,80.95
2023-01-29T00:53:07.909Z,80.93
2023-01-29T00:55:47.803Z,81.37
2023-01-29T00:58:21.635Z,81.53
2023-01-29T01:01:10.496Z,81.60
2023-01-29T01:03:41.792Z,81.63
2023-01-29T01:06:11.287Z,81.56
2023-01-29T01:09:09.714Z,81.32
2023-01-29T01:11:38.248Z,81.56
2023-01-29T01:14:10.015Z,81.73
2023-01-29T01:16:38.932Z,81.71
2023-01-29T01:19:24.037Z,81.65
2023-01-29T01:21:53.002Z,81.78
2023-01-29T01:24:42.042Z,81.86
2023-01-29T01:27:10.990Z,81.84
2023-01-29T01:29:59.785Z,81.72
2023-01-29T01:32:28.685Z,81.71
2023-01-29T01:34:57.224Z,81.87
2023-01-29T01:37:48.094Z,81.88
2023-01-29T01:40:31.114Z,81.62
2023-01-29T01:43:01.134Z,81.54
2023-01-29T01:45:31.852Z,81.45
2023-01-29T01:48:05.275Z,81.60
2023-01-29T01:50:52.953Z,81.62
2023-01-29T01:53:31.645Z,81.79
2023-01-29T01:56:07.703Z,81.70
2023-01-29T01:58:46.400Z,81.70
2023-01-29T02:01:15.287Z,81.52
2023-01-29T02:04:05.735Z,81.29
2023-01-29T02:06:53.295Z,81.34
2023-01-29T02:09:33.140Z,81.28
2023-01-29T02:12:20.894Z,81.26
2023-01-29T02:14:52.705Z,81.48
2023-01-29T02:17:21.552Z,81.66
2023-01-29T02:20:03.276Z,82.01
2023-01-29T02:23:05.388Z,81.90
2023-01-29T02:25:59.007Z,81.92
2023-01-29T02:28:44.101Z,82.10
2023-01-29T02:31:21.859Z,82.42
2023-01-29T02:34:09.433Z,82.36
2023-01-29T02:36:44.973Z,82.12
2023-01-29T02:39:37.540Z,82.30
2023-01-29T02:42:15.107Z,82.59
2023-01-29T02:44:58.334Z,82.92
2023-01-29T02:47:40.055Z,83.11
2023-01-29T02:50:16.642Z,83.32
2023-01-29T02:53:01.779Z,83.45
2023-01-29T02:55:36.575Z,83.61
2023-01-29T02:58:21.849Z,83.54
2023-01-29T03:00:56.333Z,83.40
2023-01-29T03:03:34.194Z,83.42
2023-01-29T03:06:11.508Z,83.46
2023-01-29T03:08:50.192Z,83.40
2023-01-29T03:11:33.269Z,83.25
2023-01-29T03:14:07.921Z,83.33
2023-01-29T03:16:45.752Z,83.48
2023-01-29T03:19:39.539Z,83.77
2023-01-29T03:22:22.568Z,83.85
2023-01-29T03:25:16.720Z,83.94
2023-01-29T03:28:09.227Z,83.96
2023-01-29T03:31:06.576Z,84.18
2023-01-29T03:33:48.730Z,84.24
2023-01-29T03:36:22.755Z,84.14
2023-01-29T03:38:57.129Z,84.15
2023-01-29T03:41:49.402Z,84.19
2023-01-29T03:44:51.508Z,83.92
2023-01-29T03:47:45.818Z,83.99
2023-01-29T03:50:30.867Z,83.94
2023-01-29T03:53:18.456Z,84.07
2023-01-29T03:55:55.647Z,84.20
2023-01-29T03:58:50.267Z,84.34
2023-01-29T04:01:46.825Z,84.76
2023-01-29T04:04:22.017Z,84.70
2023-01-29T04:06:57.765Z,84.70
2023-01-29T04:09:32.611Z,84.81
2023-01-29T04:12:06.662Z,84.94
2023-01-29T04:14:40.827Z,84.85
2023-01-29T04:17:14.668Z,84.95
2023-01-29T04:20:03.782Z,85.12
2023-01-29T04:22:36.015Z,85.11
2023-01-29T04:25:15.356Z,85.26
2023-01-29T04:27:57.352Z,85.33
2023-01-29T04:30:42.618Z,85.15
2023-01-29T04:33:28.611Z,85.23
2023-01-29T04:36:09.774Z,85.15
2023-01-29T04:39:00.776Z,85.14
2023-01-29T04:41:37.032Z,85.09
2023-01-29T04:44:21.608Z,85.08
2023-01-29T04:47:03.282Z,84.80
2023-01-29T04:50:02.857Z,84.96
2023-01-29T04:52:52.867Z,84.97
2023-01-29T04:55:36.150Z,84.76
2023-01-29T04:58:25.403Z,84.70
2023-01-29T05:00:55.092Z,84.56
2023-01-29T05:03:27.058Z,84.71
2023-01-29T05:06:02.251Z,84.32
2023-01-29T05:08:52.158Z,84.16
2023-01-29T05:11:25.351Z,84.11
2023-01-29T05:13:55.730Z,84.07
2023-01-29T05:16:41.432Z,84.33
2023-01-29T05:19:16.914Z,84.28
2023-01-29T05:21:50.134Z,84.22
2023-01-29T05:24:23.889Z,83.81
2023-01-29T05:27:12.429Z,83.76
2023-01-29T05:29:54.899Z,83.92
2023-01-29T05:32:23.501Z,83.64
2023-01-29T05:35:07.045Z,83.44
2023-01-29T05:37:45.086Z,83.61
2023-01-29T05:40:25.236Z,83.68
2023-01-29T05:43:03.349Z,83.77
2023-01-29T05:45:55.041Z,83.82
2023-01-29T05:48:28.469Z,83.71
2023-01-29T05:51:01.956Z,83.81
2023-01-29T05:53:45.662Z,84.27
2023-01-29T05:56:24.680Z,84.19
2023-01-29T05:58:53.209Z,84.00
2023-01-29T06:01:36.034Z,84.13
2023-01-29T06:04:05.309Z,84.13
2023-01-29T06:06:54.113Z,84.10
2023-01-29T06:09:27.853Z,84.08
2023-01-29T06:11:57.089Z,84.21
2023-01-29T06:14:26.125Z,84.03
2023-01-29T06:16:54.886Z,83.95
2023-01-29T06:19:32.575Z,84.02
2023-01-29T06:22:10.641Z,84.08
2023-01-29T06:24:59.558Z,84.05
2023-01-29T06:27:40.875Z,83.94
2023-01-29T06:30:19.053Z,84.04
2023-01-29T06:32:58.226Z,84.10
2023-01-29T06:35:38.050Z,84.19
2023-01-29T06:38:21.232Z,84.17
2023-01-29T06:41:11.082Z,84.27
2023-01-29T06:43:45.683Z,84.13
2023-01-29T06:46:14.725Z,84.14
2023-01-29T06:48:59.902Z,84.15
2023-01-29T06:51:28.774Z,84.05
2023-01-29T06:53:58.698Z,84.07
2023-01-29T06:56:36.622Z,83.99
2023-01-29T06:59:05.548Z,84.11
2023-01-29T07:01:47.317Z,84.05
2023-01-29T07:04:37.188Z,84.04
2023-01-29T07:07:24.777Z,83.83
2023-01-29T07:09:58.625Z,83.78
2023-01-29T07:12:36.109Z,83.55
2023-01-29T07:15:12.072Z,83.32
2023-01-29T07:18:03.981Z,83.03
2023-01-29T07:20:46.581Z,82.77
2023-01-29T07:23:35.900Z,82.72
2023-01-29T07:26:10.243Z,82.71
2023-01-29T07:28:59.130Z,82.41
2023-01-29T07:31:30.951Z,82.03
2023-01-29T07:34:08.852Z,82.12
2023-01-29T07:36:37.717Z,81.58
2023-01-29T07:39:26.671Z,81.30
2023-01-29T07:41:55.745Z,80.83
2023-01-29T07:44:32.146Z,81.13
2023-01-29T07:47:04.902Z,80.88
2023-01-29T07:49:44.792Z,80.74
2023-01-29T07:52:23.695Z,80.83
2023-01-29T07:55:12.614Z,80.55
2023-01-29T07:57:59.286Z,80.48
2023-01-29T08:00:32.931Z,80.23
2023-01-29T08:03:06.385Z,80.06
2023-01-29T08:05:35.311Z,79.84
2023-01-29T08:08:07.392Z,79.38
2023-01-29T08:10:40.822Z,78.77
2023-01-29T08:13:20.773Z,78.71
2023-01-29T08:16:10.278Z,78.44
2023-01-29T08:18:59.671Z,78.04
2023-01-29T08:21:48.624Z,78.10
2023-01-29T08:24:20.432Z,77.94
2023-01-29T08:26:49.487Z,77.79
2023-01-29T08:29:21.227Z,77.59
2023-01-29T08:31:50.379Z,77.76
2023-01-29T08:34:19.235Z,77.69
2023-01-29T08:36:48.013Z,77.18
2023-01-29T08:39:16.727Z,77.29
2023-01-29T08:41:48.338Z,77.28
2023-01-29T08:44:17.132Z,77.30
2023-01-29T08:46:49.090Z,77.23
2023-01-29T08:49:17.762Z,76.92
2023-01-29T08:51:50.689Z,76.23
2023-01-29T08:54:19.449Z,76.14
2023-01-29T08:56:48.339Z,75.49
2023-01-29T08:59:17.069Z,75.04
2023-01-29T09:01:48.879Z,74.92
2023-01-29T09:04:17.711Z,74.54
2023-01-29T09:06:49.623Z,74.19
2023-01-29T09:09:18.561Z,74.18
2023-01-29T09:11:54.804Z,73.73
2023-01-29T09:14:27.089Z,72.82
2023-01-29T09:16:55.807Z,72.13
2023-01-29T09:19:29.421Z,71.46
2023-01-29T09:22:11.566Z,71.64
2023-01-29T09:24:43.570Z,71.56
2023-01-29T09:27:25.126Z,71.00
2023-01-29T09:29:53.877Z,71.24
2023-01-29T09:32:53.525Z,71.55
2023-01-29T09:35:23.440Z,71.40
2023-01-29T09:37:52.664Z,70.80
2023-01-29T09:40:38.282Z,70.37
2023-01-29T09:43:13.727Z,69.95
2023-01-29T09:45:55.687Z,69.86
2023-01-29T09:48:32.299Z,69.81
2023-01-29T09:51:06.668Z,69.72
2023-01-29T09:53:45.823Z,69.35
2023-01-29T09:56:35.021Z,69.32
2023-01-29T09:59:21.871Z,68.50
2023-01-29T10:02:06.408Z,67.49
2023-01-29T10:05:07.489Z,66.69
2023-01-29T10:08:11.484Z,66.32
2023-01-29T10:11:09.827Z,65.70
2023-01-29T10:13:48.457Z,64.14
2023-01-29T10:16:32.834Z,62.76
2023-01-29T10:19:40.062Z,62.35
2023-01-29T10:22:34.242Z,62.97
2023-01-29T10:25:11.324Z,61.66
2023-01-29T10:27:44.690Z,60.31
2023-01-29T10:30:30.871Z,60.44
2023-01-29T10:33:03.089Z,60.55
2023-01-29T10:35:57.423Z,60.53
2023-01-29T10:38:45.369Z,59.61
2023-01-29T10:41:37.031Z,59.05
2023-01-29T10:44:25.184Z,58.37
2023-01-29T10:47:08.721Z,58.14
2023-01-29T10:49:57.310Z,57.88
2023-01-29T10:53:09.481Z,57.75
2023-01-29T10:55:52.096Z,57.76
2023-01-29T10:58:38.195Z,58.40
2023-01-29T11:01:07.880Z,58.61
2023-01-29T11:03:42.014Z,58.97
2023-01-29T11:06:30.124Z,59.15
2023-01-29T11:09:07.493Z,59.44
2023-01-29T11:11:45.915Z,59.04
2023-01-29T11:14:18.699Z,59.37
2023-01-29T11:16:49.135Z,59.83
2023-01-29T11:19:38.147Z,60.48
2023-01-29T11:22:14.863Z,60.29
2023-01-29T11:24:43.909Z,60.73
2023-01-29T11:27:22.875Z,61.28
2023-01-29T11:29:57.118Z,61.37
2023-01-29T11:32:29.052Z,61.25
2023-01-29T11:35:03.474Z,60.87
2023-01-29T11:37:37.729Z,60.64
2023-01-29T11:40:39.678Z,61.07
2023-01-29T11:43:21.667Z,61.07
2023-01-29T11:45:57.567Z,61.61
2023-01-29T11:48:34.989Z,61.66
2023-01-29T11:51:05.668Z,61.46
2023-01-29T11:53:40.107Z,61.02
2023-01-29T11:56:20.570Z,61.27
2023-01-29T11:58:50.335Z,61.59
2023-01-29T12:01:30.081Z,61.57
2023-01-29T12:03:59.618Z,61.89
2023-01-29T12:06:35.011Z,61.82
2023-01-29T12:09:11.194Z,61.86
2023-01-29T12:11:40.043Z,61.82
2023-01-29T12:14:27.540Z,61.51
2023-01-29T12:17:01.862Z,61.68
2023-01-29T12:19:40.373Z,61.92
2023-01-29T12:22:20.324Z,61.68
2023-01-29T12:24:55.245Z,61.20
2023-01-29T12:27:29.549Z,60.98
2023-01-29T12:30:05.990Z,61.02
2023-01-29T12:32:44.263Z,61.57
2023-01-29T12:35:22.228Z,61.64
2023-01-29T12:37:58.679Z,61.66
2023-01-29T12:40:33.157Z,61.31
2023-01-29T12:43:11.614Z,61.63
2023-01-29T12:45:43.698Z,61.85
2023-01-29T12:48:14.045Z,61.68
2023-01-29T12:50:42.836Z,60.96
2023-01-29T12:53:24.530Z,61.19
2023-01-29T12:55:57.899Z,61.51
2023-01-29T12:58:32.406Z,61.67
2023-01-29T13:01:15.405Z,61.90
2023-01-29T13:03:53.067Z,62.48
2023-01-29T13:06:28.418Z,62.70
2023-01-29T13:09:01.247Z,62.76
2023-01-29T13:11:41.172Z,62.91
2023-01-29T13:14:18.917Z,63.24
2023-01-29T13:16:53.147Z,63.33
2023-01-29T13:19:31.268Z,62.90
2023-01-29T13:22:04.814Z,63.50
2023-01-29T13:24:38.747Z,63.93
2023-01-29T13:27:17.182Z,64.26
2023-01-29T13:29:46.035Z,64.47
2023-01-29T13:32:22.586Z,64.87
2023-01-29T13:34:52.652Z,65.20
2023-01-29T13:37:27.899Z,65.56
2023-01-29T13:39:58.999Z,65.46
2023-01-29T13:42:43.900Z,65.27
2023-01-29T13:45:22.395Z,65.39
2023-01-29T13:48:08.170Z,65.59
2023-01-29T13:50:39.929Z,65.67
2023-01-29T13:53:19.707Z,65.77
2023-01-29T13:55:48.511Z,65.92
2023-01-29T13:58:38.221Z,66.33
2023-01-29T14:01:10.060Z,66.60
2023-01-29T14:04:04.218Z,66.52
2023-01-29T14:06:48.323Z,66.46
2023-01-29T14:09:54.846Z,66.64
2023-01-29T14:12:41.470Z,66.93
2023-01-29T14:15:28.983Z,67.02
2023-01-29T14:18:02.561Z,66.98
2023-01-29T14:20:50.832Z,67.15
2023-01-29T14:23:30.039Z,67.33
2023-01-29T14:26:01.251Z,67.33
2023-01-29T14:28:33.010Z,67.54
2023-01-29T14:31:04.027Z,67.67
2023-01-29T14:33:38.529Z,67.87
2023-01-29T14:36:15.564Z,68.08
2023-01-29T14:38:47.512Z,68.31
2023-01-29T14:41:24.048Z,68.28
2023-01-29T14:44:13.163Z,68.20
2023-01-29T14:46:45.994Z,68.42
2023-01-29T14:49:51.830Z,68.46
2023-01-29T14:52:25.561Z,68.61
2023-01-29T14:54:59.512Z,68.79
2023-01-29T14:57:31.287Z,68.87
2023-01-29T15:00:04.708Z,69.03
2023-01-29T15:02:41.972Z,69.14
2023-01-29T15:05:16.971Z,69.16
2023-01-29T15:07:54.793Z,69.31
2023-01-29T15:10:32.310Z,69.38
2023-01-29T15:13:21.493Z,69.53
2023-01-29T15:15:57.731Z,69.72
2023-01-29T15:18:35.074Z,69.88
2023-01-29T15:21:14.036Z,69.97
2023-01-29T15:23:44.163Z,70.10
2023-01-29T15:26:18.302Z,70.24
2023-01-29T15:29:03.646Z,70.40
2023-01-29T15:31:36.519Z,70.53
2023-01-29T15:34:08.292Z,70.57
2023-01-29T15:36:39.389Z,70.63
2023-01-29T15:39:20.910Z,70.74
2023-01-29T15:42:12.132Z,70.85
2023-01-29T15:44:49.464Z,70.96
2023-01-29T15:47:23.831Z,71.09
2023-01-29T15:49:53.315Z,71.20
2023-01-29T15:52:26.474Z,71.31
2023-01-29T15:54:57.753Z,71.08
2023-01-29T15:57:32.258Z,71.18
2023-01-29T16:00:02.311Z,71.21
2023-01-29T16:02:41.255Z,71.32
2023-01-29T16:05:15.868Z,71.40
2023-01-29T16:07:45.811Z,71.63
2023-01-29T16:10:21.037Z,71.88
2023-01-29T16:12:51.142Z,71.85
2023-01-29T16:15:27.863Z,71.94
2023-01-29T16:17:57.388Z,71.78
2023-01-29T16:20:35.810Z,71.75
2023-01-29T16:23:05.909Z,71.91
2023-01-29T16:25:37.248Z,72.09
2023-01-29T16:28:10.779Z,72.56
2023-01-29T16:30:44.914Z,72.55
2023-01-29T16:33:16.827Z,72.65
2023-01-29T16:36:12.375Z,72.64
2023-01-29T16:39:05.367Z,72.76
2023-01-29T16:42:21.313Z,72.68
2023-01-29T16:44:53.907Z,72.73
2023-01-29T16:47:38.564Z,72.73
2023-01-29T16:50:33.144Z,72.89
2023-01-29T16:53:05.017Z,72.83
2023-01-29T16:55:39.287Z,73.02
2023-01-29T16:58:15.067Z,73.25
2023-01-29T17:00:46.353Z,73.40
2023-01-29T17:03:17.024Z,73.70
2023-01-29T17:05:47.217Z,73.79
2023-01-29T17:08:21.527Z,73.86
2023-01-29T17:10:51.080Z,73.92
2023-01-29T17:13:27.117Z,73.97
2023-01-29T17:16:02.208Z,74.05
2023-01-29T17:18:31.312Z,74.12
2023-01-29T17:21:00.302Z,74.11
2023-01-29T17:23:29.332Z,74.28
2023-01-29T17:25:59.335Z,74.33
2023-01-29T17:28:28.586Z,74.49
2023-01-29T17:31:10.818Z,74.61
2023-01-29T17:33:43.947Z,74.72
2023-01-29T17:36:15.521Z,74.85
2023-01-29T17:38:45.064Z,74.88
2023-01-29T17:41:22.129Z,75.01
2023-01-29T17:43:58.919Z,75.02
2023-01-29T17:46:28.253Z,75.08
2023-01-29T17:48:57.440Z,75.30
2023-01-29T17:51:35.382Z,75.42
2023-01-29T17:54:10.112Z,75.68
2023-01-29T17:56:39.251Z,75.91
2023-01-29T17:59:14.840Z,76.31
2023-01-29T18:01:47.936Z,76.44
2023-01-29T18:04:26.194Z,76.63
2023-01-29T18:06:57.752Z,76.82
2023-01-29T18:09:27.281Z,77.02
2023-01-29T18:11:58.739Z,77.35
2023-01-29T18:14:36.851Z,77.62
2023-01-29T18:17:05.687Z,77.82
2023-01-29T18:19:34.313Z,78.05
2023-01-29T18:22:03.213Z,78.26
2023-01-29T18:24:33.105Z,78.51
2023-01-29T18:27:06.511Z,78.72
2023-01-29T18:29:35.421Z,78.79
2023-01-29T18:32:07.183Z,78.85
2023-01-29T18:34:36.216Z,79.04
2023-01-29T18:37:04.947Z,79.20
2023-01-29T18:39:36.696Z,79.36
2023-01-29T18:42:06.103Z,79.46
2023-01-29T18:44:34.995Z,79.44
2023-01-29T18:47:06.695Z,79.54
2023-01-29T18:49:38.479Z,79.60
2023-01-29T18:52:09.196Z,79.71
2023-01-29T18:54:44.531Z,79.54
2023-01-29T18:58:24.631Z,79.65
2023-01-29T19:00:20.780Z,79.46
2023-01-29T19:02:50.505Z,79.72
2023-01-29T19:05:29.684Z,79.82
2023-01-29T19:08:02.264Z,79.90
2023-01-29T19:10:31.543Z,79.94
2023-01-29T19:13:01.559Z,79.95
2023-01-29T19:15:30.401Z,80.05
2023-01-29T19:18:20.607Z,80.34
2023-01-29T19:20:49.606Z,80.42
2023-01-29T19:23:20.902Z,80.37
2023-01-29T19:25:59.043Z,80.64
2023-01-29T19:28:28.128Z,80.93
2023-01-29T19:30:57.959Z,80.84
2023-01-29T19:33:27.441Z,80.90
2023-01-29T19:35:57.511Z,80.73
2023-01-29T19:38:32.745Z,80.78
2023-01-29T19:41:02.680Z,80.71
2023-01-29T19:43:32.542Z,80.61
2023-01-29T19:46:02.499Z,80.48
2023-01-29T19:48:31.596Z,80.51
2023-01-29T19:51:04.584Z,80.60
2023-01-29T19:53:34.594Z,80.90
2023-01-29T19:56:05.822Z,80.86
2023-01-29T19:58:38.024Z,80.93
2023-01-29T20:01:17.094Z,80.85
2023-01-29T20:03:50.173Z,80.66
2023-01-29T20:06:30.449Z,80.79
2023-01-29T20:09:03.725Z,80.94
2023-01-29T20:11:34.448Z,81.07
2023-01-29T20:14:04.105Z,81.15
2023-01-29T20:16:34.308Z,81.57
2023-01-29T20:19:14.195Z,81.59
2023-01-29T20:21:49.209Z,81.57
2023-01-29T20:24:34.437Z,81.64
2023-01-29T20:27:04.226Z,81.72
2023-01-29T20:29:36.121Z,81.92
2023-01-29T20:32:13.962Z,81.92
2023-01-29T20:34:51.808Z,81.85
2023-01-29T20:37:20.711Z,81.95
2023-01-29T20:39:49.349Z,81.89
2023-01-29T20:42:18.132Z,82.00
2023-01-29T20:44:52.795Z,82.01
2023-01-29T20:47:24.845Z,82.25
2023-01-29T20:49:53.459Z,82.28
2023-01-29T20:52:22.318Z,82.37
2023-01-29T20:54:56.841Z,82.51
2023-01-29T20:57:25.708Z,82.45
2023-01-29T20:59:54.418Z,82.61
2023-01-29T21:02:26.545Z,82.85
2023-01-29T21:04:57.560Z,83.02
2023-01-29T21:07:26.232Z,82.85
2023-01-29T21:09:58.167Z,82.74
2023-01-29T21:12:27.003Z,82.81
2023-01-29T21:14:58.593Z,82.85
2023-01-29T21:17:32.997Z,82.71
2023-01-29T21:20:03.385Z,82.68
2023-01-29T21:22:32.743Z,82.63
2023-01-29T21:25:01.367Z,82.72
2023-01-29T21:27:30.364Z,82.76
2023-01-29T21:29:59.262Z,82.77
2023-01-29T21:32:28.114Z,82.78
2023-01-29T21:34:56.778Z,82.91
2023-01-29T21:37:25.789Z,83.03
2023-01-29T21:39:57.108Z,83.17
2023-01-29T21:42:47.156Z,83.12
2023-01-29T21:45:16.439Z,83.31
2023-01-29T21:47:45.483Z,83.11
2023-01-29T21:50:20.259Z,83.26
2023-01-29T21:52:51.959Z,83.22
2023-01-29T21:55:23.931Z,83.29
2023-01-29T21:57:55.612Z,83.29
2023-01-29T22:00:24.591Z,83.41
2023-01-29T22:02:56.415Z,83.39
2023-01-29T22:05:26.058Z,83.37
2023-01-29T22:07:57.988Z,83.22
2023-01-29T22:10:26.901Z,83.34
2023-01-29T22:12:55.659Z,83.21
2023-01-29T22:15:24.433Z,83.38
2023-01-29T22:17:53.355Z,83.61
2023-01-29T22:20:29.594Z,83.79
2023-01-29T22:23:00.035Z,83.76
2023-01-29T22:25:32.816Z,83.65
2023-01-29T22:28:01.571Z,83.72
2023-01-29T22:30:30.533Z,83.74
2023-01-29T22:32:59.231Z,83.77
2023-01-29T22:35:30.701Z,83.97
2023-01-29T22:37:59.399Z,84.12
2023-01-29T22:40:28.091Z,84.02
2023-01-29T22:42:57.205Z,84.26
2023-01-29T22:45:26.696Z,84.44
2023-01-29T22:48:08.928Z,84.25
2023-01-29T22:50:37.590Z,84.11
2023-01-29T22:53:06.668Z,84.22
2023-01-29T22:55:35.450Z,84.33
2023-01-29T22:58:09.410Z,84.61
2023-01-29T23:00:37.897Z,84.80
2023-01-29T23:03:09.146Z,84.69
2023-01-29T23:05:40.772Z,84.68
2023-01-29T23:08:09.707Z,84.65
2023-01-29T23:10:41.683Z,84.82
2023-01-29T23:13:22.446Z,84.61
2023-01-29T23:15:59.087Z,84.46
2023-01-29T23:18:37.546Z,84.83
2023-01-29T23:21:06.415Z,84.84
2023-01-29T23:23:38.617Z,84.72
2023-01-29T23:26:34.835Z,84.49
2023-01-29T23:29:15.049Z,84.44
2023-01-29T23:31:44.020Z,84.24
2023-01-29T23:34:15.840Z,84.25
2023-01-29T23:36:44.511Z,84.16
2023-01-29T23:39:16.695Z,84.16
2023-01-29T23:41:45.416Z,84.29
2023-01-29T23:44:14.279Z,84.07
2023-01-29T23:46:43.045Z,84.24
2023-01-29T23:49:21.916Z,84.31
2023-01-29T23:51:53.654Z,84.04
2023-01-29T23:54:22.295Z,84.12
2023-01-29T23:56:51.149Z,84.23
2023-01-29T23:59:20.070Z,83.81
